This is the latest recevied weather packets stored in our database for station/object SP4MAZ-13. If no packets are shown the sender has not sent any weather packets the latest 10 day(s).
| Time | Temp. | Humidity | Pressure | Rain* | Wind** | Luminosity | Snow |
|---|---|---|---|---|---|---|---|
| 1777639753 | 16.11° C | 46% | 2147.4 hPa | - | - | - | - |
| 1777639450 | 15° C | 50% | 2147.4 hPa | - | - | - | - |
| 1777639147 | 15.56° C | 49% | 2147.4 hPa | - | - | - | - |
| 1777638843 | 15.56° C | 47% | 2147.4 hPa | - | - | - | - |
| 1777638540 | 15.56° C | 47% | 2147.4 hPa | - | - | - | - |
| 1777638236 | 15° C | 51% | 2147.4 hPa | - | - | - | - |
| 1777637933 | 15° C | 49% | 2147.4 hPa | - | - | - | - |
| 1777637630 | 14.44° C | 53% | 2147.4 hPa | - | - | - | - |
| 1777637326 | 15° C | 49% | 2147.4 hPa | - | - | - | - |
| 1777637023 | 14.44° C | 54% | 2147.4 hPa | - | - | - | - |
| 1777636719 | 13.89° C | 54% | 2147.4 hPa | - | - | - | - |
| 1777636416 | 14.44° C | 52% | 2147.4 hPa | - | - | - | - |
| 1777636115 | 15° C | 48% | 2147.4 hPa | - | - | - | - |
| 1777635812 | 15° C | 48% | 2147.4 hPa | - | - | - | - |
| 1777635508 | 15° C | 48% | 2147.4 hPa | - | - | - | - |
| 1777635205 | 14.44° C | 52% | 2147.4 hPa | - | - | - | - |
| 1777634902 | 15° C | 48% | 2147.4 hPa | - | - | - | - |
| 1777634601 | 14.44° C | 53% | 2147.4 hPa | - | - | - | - |
| 1777634300 | 13.89° C | 57% | 2147.4 hPa | - | - | - | - |
| 1777633997 | 15° C | 48% | 2147.4 hPa | - | - | - | - |
| 1777633693 | 14.44° C | 48% | 2147.4 hPa | - | - | - | - |
| 1777633390 | 14.44° C | 50% | 2147.4 hPa | - | - | - | - |
| 1777633086 | 14.44° C | 49% | 2147.4 hPa | - | - | - | - |
| 1777632783 | 13.89° C | 51% | 2147.4 hPa | - | - | - | - |
| 1777632479 | 14.44° C | 49% | 2147.4 hPa | - | - | - | - |
* Rain since midnight (hover to see other rain measurements)
** Current wind speed in m/s (hover to see current wind gust speed)